createdAt,value
2022-08-05T00:00:50.201Z,81.00
2022-08-05T00:03:19.421Z,81.20
2022-08-05T00:06:04.737Z,81.30
2022-08-05T00:08:37.579Z,81.30
2022-08-05T00:11:20.579Z,81.50
2022-08-05T00:13:57.003Z,81.60
2022-08-05T00:16:35.931Z,81.80
2022-08-05T00:19:14.524Z,81.90
2022-08-05T00:21:43.400Z,81.90
2022-08-05T00:24:16.103Z,82.00
2022-08-05T00:26:51.987Z,82.10
2022-08-05T00:29:22.845Z,82.20
2022-08-05T00:32:13.086Z,82.20
2022-08-05T00:35:04.160Z,82.30
2022-08-05T00:37:50.528Z,82.50
2022-08-05T00:40:27.977Z,82.40
2022-08-05T00:42:59.721Z,82.60
2022-08-05T00:45:43.168Z,82.70
2022-08-05T00:48:14.305Z,82.70
2022-08-05T00:50:46.047Z,82.90
2022-08-05T00:54:01.002Z,83.00
2022-08-05T00:56:07.811Z,83.20
2022-08-05T00:58:37.724Z,83.20
2022-08-05T01:01:08.833Z,83.30
2022-08-05T01:03:38.068Z,83.50
2022-08-05T01:06:14.259Z,83.50
2022-08-05T01:08:47.155Z,83.70
2022-08-05T01:11:24.284Z,83.80
2022-08-05T01:14:08.487Z,84.00
2022-08-05T01:16:50.035Z,84.30
2022-08-05T01:20:02.340Z,84.30
2022-08-05T01:22:53.168Z,84.50
2022-08-05T01:25:40.518Z,84.60
2022-08-05T01:28:25.785Z,84.80
2022-08-05T01:30:58.547Z,84.80
2022-08-05T01:33:35.553Z,84.90
2022-08-05T01:36:12.937Z,85.10
2022-08-05T01:38:48.338Z,85.20
2022-08-05T01:41:21.879Z,85.30
2022-08-05T01:43:53.546Z,85.40
2022-08-05T01:46:42.395Z,85.60
2022-08-05T01:49:24.075Z,85.80
2022-08-05T01:52:02.156Z,86.00
2022-08-05T01:54:52.069Z,86.30
2022-08-05T01:58:10.380Z,86.40
2022-08-05T02:00:17.873Z,86.60
2022-08-05T02:02:54.998Z,86.80
2022-08-05T02:05:36.036Z,87.10
2022-08-05T02:08:06.999Z,87.30
2022-08-05T02:10:43.916Z,87.50
2022-08-05T02:13:16.912Z,87.70
2022-08-05T02:15:51.612Z,87.70
2022-08-05T02:18:30.790Z,88.00
2022-08-05T02:21:14.633Z,88.30
2022-08-05T02:23:47.464Z,88.50
2022-08-05T02:26:23.269Z,88.50
2022-08-05T02:28:58.248Z,88.80
2022-08-05T02:31:34.893Z,89.00
2022-08-05T02:34:09.348Z,89.10
2022-08-05T02:36:43.718Z,89.40
2022-08-05T02:39:13.411Z,89.50
2022-08-05T02:42:00.412Z,89.70
2022-08-05T02:44:31.379Z,89.90
2022-08-05T02:47:02.054Z,90.00
2022-08-05T02:49:36.529Z,90.00
2022-08-05T02:52:11.317Z,90.20
2022-08-05T02:54:42.717Z,90.30
2022-08-05T02:58:11.928Z,90.40
2022-08-05T03:00:12.857Z,90.50
2022-08-05T03:02:45.342Z,90.60
2022-08-05T03:05:15.167Z,90.70
2022-08-05T03:08:06.828Z,90.80
2022-08-05T03:10:33.406Z,90.90
2022-08-05T03:15:29.309Z,91.10
2022-08-05T03:17:59.576Z,91.20
2022-08-05T03:20:28.163Z,91.30
2022-08-05T03:22:58.123Z,91.40
2022-08-05T03:25:33.343Z,91.40
2022-08-05T03:28:18.734Z,91.50
2022-08-05T03:30:49.707Z,91.60
2022-08-05T03:33:22.095Z,91.70
2022-08-05T03:35:52.874Z,91.70
2022-08-05T03:38:33.080Z,91.70
2022-08-05T03:41:08.508Z,91.80
2022-08-05T03:44:09.293Z,91.80
2022-08-05T03:46:30.036Z,91.80
2022-08-05T03:49:02.561Z,91.80
2022-08-05T03:52:48.514Z,91.80
2022-08-05T03:55:34.207Z,91.80
2022-08-05T03:57:29.257Z,92.10
2022-08-05T04:00:15.495Z,91.50
2022-08-05T04:02:57.568Z,91.40
2022-08-05T04:05:33.980Z,91.30
2022-08-05T04:08:14.594Z,91.20
2022-08-05T04:10:56.752Z,91.10
2022-08-05T04:13:27.751Z,90.80
2022-08-05T04:16:16.060Z,90.50
2022-08-05T04:18:54.856Z,90.20
2022-08-05T04:22:09.508Z,89.90
2022-08-05T04:24:19.464Z,89.50
2022-08-05T04:26:51.676Z,88.80
2022-08-05T04:29:20.604Z,88.30
2022-08-05T04:31:49.600Z,87.80
2022-08-05T04:34:32.820Z,87.30
2022-08-05T04:37:05.800Z,86.60
2022-08-05T04:39:35.365Z,85.90
2022-08-05T04:42:04.988Z,85.20
2022-08-05T04:44:33.712Z,84.50
2022-08-05T04:47:09.467Z,83.90
2022-08-05T04:50:02.599Z,83.40
2022-08-05T04:52:32.528Z,83.80
2022-08-05T04:55:05.332Z,82.30
2022-08-05T04:57:47.563Z,81.40
2022-08-05T05:00:17.614Z,80.60
2022-08-05T05:02:46.914Z,80.00
2022-08-05T05:05:16.669Z,79.30
2022-08-05T05:08:02.601Z,78.60
2022-08-05T05:10:33.327Z,77.60
2022-08-05T05:13:04.280Z,77.00
2022-08-05T05:15:57.320Z,76.60
2022-08-05T05:18:31.031Z,76.10
2022-08-05T05:21:03.143Z,75.70
2022-08-05T05:23:39.374Z,75.50
2022-08-05T05:26:28.513Z,75.30
2022-08-05T05:29:02.809Z,75.10
2022-08-05T05:31:43.354Z,74.60
2022-08-05T05:34:15.824Z,74.00
2022-08-05T05:36:47.182Z,73.50
2022-08-05T05:39:21.379Z,73.00
2022-08-05T05:41:54.455Z,72.50
2022-08-05T05:44:36.871Z,72.20
2022-08-05T05:47:23.581Z,71.60
2022-08-05T05:50:01.640Z,71.10
2022-08-05T05:52:34.691Z,70.40
2022-08-05T05:55:13.160Z,69.70
2022-08-05T05:57:52.962Z,68.60
2022-08-05T06:00:31.372Z,67.90
2022-08-05T06:03:03.362Z,66.90
2022-08-05T06:05:54.161Z,66.40
2022-08-05T06:08:32.487Z,65.30
2022-08-05T06:11:03.132Z,64.30
2022-08-05T06:13:40.716Z,63.60
2022-08-05T06:16:28.553Z,62.70
2022-08-05T06:19:01.138Z,62.00
2022-08-05T06:21:37.105Z,61.80
2022-08-05T06:24:11.273Z,61.70
2022-08-05T06:26:51.127Z,61.20
2022-08-05T06:29:25.559Z,60.60
2022-08-05T06:32:21.117Z,59.70
2022-08-05T06:34:56.605Z,59.30
2022-08-05T06:37:56.611Z,58.90
2022-08-05T06:40:18.512Z,58.90
2022-08-05T06:42:52.930Z,58.20
2022-08-05T06:46:03.080Z,57.50
2022-08-05T06:48:53.053Z,57.20
2022-08-05T06:51:00.059Z,57.30
2022-08-05T06:53:29.719Z,57.00
2022-08-05T06:55:59.705Z,56.70
2022-08-05T06:58:36.515Z,56.30
2022-08-05T07:01:07.146Z,55.60
2022-08-05T07:03:36.457Z,55.40
2022-08-05T07:06:14.244Z,55.30
2022-08-05T07:08:47.864Z,55.00
2022-08-05T07:11:22.568Z,54.80
2022-08-05T07:14:15.845Z,54.70
2022-08-05T07:18:08.589Z,54.50
2022-08-05T07:22:30.440Z,53.60
2022-08-05T07:25:23.980Z,53.40
2022-08-05T07:27:57.970Z,53.10
2022-08-05T07:30:34.451Z,52.70
2022-08-05T07:33:05.520Z,52.40
2022-08-05T07:36:04.849Z,51.80
2022-08-05T07:38:34.378Z,51.80
2022-08-05T07:41:35.007Z,51.70
2022-08-05T07:43:57.015Z,51.50
2022-08-05T07:46:29.187Z,50.60
2022-08-05T07:49:05.571Z,51.00
2022-08-05T07:51:40.740Z,50.60
2022-08-05T07:54:18.759Z,50.80
2022-08-05T07:57:01.894Z,51.10
2022-08-05T07:59:40.575Z,50.70
2022-08-05T08:02:16.134Z,50.40
2022-08-05T08:04:48.180Z,50.50
2022-08-05T08:07:23.048Z,50.30
2022-08-05T08:09:55.090Z,49.60
2022-08-05T08:12:36.959Z,49.20
2022-08-05T08:15:15.159Z,49.50
2022-08-05T08:17:52.895Z,49.00
2022-08-05T08:21:00.287Z,49.00
2022-08-05T08:24:02.263Z,49.00
2022-08-05T08:26:02.787Z,49.00
2022-08-05T08:28:36.335Z,48.10
2022-08-05T08:31:06.917Z,48.10
2022-08-05T08:33:38.189Z,47.80
2022-08-05T08:38:57.796Z,47.70
2022-08-05T08:41:50.679Z,47.80
2022-08-05T08:45:18.684Z,47.50
2022-08-05T08:47:47.626Z,47.50
2022-08-05T08:50:14.610Z,47.30
2022-08-05T08:52:55.875Z,47.00
2022-08-05T08:56:02.205Z,47.10
2022-08-05T08:58:16.395Z,47.40
2022-08-05T09:00:46.903Z,47.40
2022-08-05T09:03:19.165Z,47.50
2022-08-05T09:06:08.434Z,47.50
2022-08-05T09:08:40.506Z,47.50
2022-08-05T09:11:12.175Z,47.50
2022-08-05T09:14:10.026Z,47.30
2022-08-05T09:16:33.046Z,47.40
2022-08-05T09:19:01.794Z,47.80
2022-08-05T09:22:22.172Z,48.10
2022-08-05T09:24:25.748Z,48.00
2022-08-05T09:26:58.795Z,47.80
2022-08-05T09:29:47.618Z,47.80
2022-08-05T09:32:46.089Z,47.60
2022-08-05T09:35:26.641Z,48.10
2022-08-05T09:38:16.164Z,48.20
2022-08-05T09:40:52.302Z,48.40
2022-08-05T09:43:40.514Z,48.60
2022-08-05T09:46:27.508Z,48.50
2022-08-05T09:49:06.719Z,48.90
2022-08-05T09:51:39.892Z,48.80
2022-08-05T09:54:11.617Z,49.00
2022-08-05T09:56:52.274Z,48.90
2022-08-05T09:59:27.718Z,48.60
2022-08-05T10:01:58.184Z,48.40
2022-08-05T10:04:38.642Z,48.50
2022-08-05T10:07:20.134Z,47.80
2022-08-05T10:10:15.308Z,48.30
2022-08-05T10:12:49.200Z,48.20
2022-08-05T10:15:22.078Z,48.40
2022-08-05T10:18:10.435Z,48.40
2022-08-05T10:20:41.940Z,48.60
2022-08-05T10:23:34.091Z,48.60
2022-08-05T10:26:51.563Z,49.20
2022-08-05T10:28:56.534Z,49.20
2022-08-05T10:33:01.988Z,49.50
2022-08-05T10:34:14.454Z,49.80
2022-08-05T10:36:46.689Z,50.00
2022-08-05T10:39:24.455Z,50.00
2022-08-05T10:42:14.654Z,50.00
2022-08-05T10:44:47.729Z,50.00
2022-08-05T10:47:26.445Z,49.80
2022-08-05T10:50:20.669Z,49.80
2022-08-05T10:52:58.475Z,50.00
2022-08-05T10:55:28.671Z,50.30
2022-08-05T10:58:15.581Z,50.10
2022-08-05T11:00:55.455Z,50.10
2022-08-05T11:03:33.746Z,50.30
2022-08-05T11:06:08.555Z,50.60
2022-08-05T11:09:16.303Z,50.60
2022-08-05T11:11:53.369Z,50.70
2022-08-05T11:14:57.851Z,50.90
2022-08-05T11:17:59.654Z,51.00
2022-08-05T11:20:39.228Z,50.80
2022-08-05T11:24:03.250Z,51.10
2022-08-05T11:26:28.031Z,51.00
2022-08-05T11:29:12.291Z,50.90
2022-08-05T11:31:57.405Z,50.80
2022-08-05T11:34:51.080Z,50.90
2022-08-05T11:38:30.793Z,51.00
2022-08-05T11:41:34.527Z,51.10
2022-08-05T11:44:01.021Z,50.70
2022-08-05T11:47:09.937Z,51.30
2022-08-05T11:49:28.656Z,50.40
2022-08-05T11:51:57.894Z,50.50
2022-08-05T11:54:33.896Z,50.60
2022-08-05T11:57:08.142Z,50.70
2022-08-05T11:59:53.502Z,50.50
2022-08-05T12:02:31.721Z,50.60
2022-08-05T12:05:07.971Z,50.50
2022-08-05T12:08:08.458Z,50.50
2022-08-05T12:10:45.008Z,50.50
2022-08-05T12:13:18.703Z,50.40
2022-08-05T12:16:15.748Z,50.50
2022-08-05T12:18:53.144Z,50.50
2022-08-05T12:21:26.875Z,50.40
2022-08-05T12:24:05.428Z,50.30
2022-08-05T12:26:37.005Z,50.00
2022-08-05T12:29:09.601Z,50.20
2022-08-05T12:31:47.609Z,50.30
2022-08-05T12:34:26.829Z,50.50
2022-08-05T12:36:59.355Z,50.60
2022-08-05T12:39:34.510Z,50.60
2022-08-05T12:42:15.012Z,50.60
2022-08-05T12:44:47.378Z,50.60
2022-08-05T12:47:28.692Z,50.60
2022-08-05T12:50:03.508Z,50.50
2022-08-05T12:52:39.760Z,50.30
2022-08-05T12:55:23.841Z,50.30
2022-08-05T12:58:48.496Z,50.00
2022-08-05T13:02:02.921Z,50.10
2022-08-05T13:03:42.233Z,50.50
2022-08-05T13:06:17.198Z,50.50
2022-08-05T13:08:51.524Z,50.60
2022-08-05T13:12:01.517Z,50.70
2022-08-05T13:14:24.508Z,50.80
2022-08-05T13:16:56.833Z,51.10
2022-08-05T13:19:40.431Z,51.10
2022-08-05T13:22:28.351Z,51.20
2022-08-05T13:25:05.905Z,51.40
2022-08-05T13:27:40.352Z,51.60
2022-08-05T13:30:34.893Z,51.70
2022-08-05T13:33:01.089Z,52.00
2022-08-05T13:35:43.143Z,52.00
2022-08-05T13:38:28.214Z,52.40
2022-08-05T13:41:00.606Z,52.60
2022-08-05T13:43:44.093Z,52.90
2022-08-05T13:46:30.778Z,53.30
2022-08-05T13:49:10.093Z,53.60
2022-08-05T13:51:46.538Z,53.80
2022-08-05T13:54:21.233Z,54.10
2022-08-05T13:56:54.524Z,54.30
2022-08-05T13:59:27.427Z,54.50
2022-08-05T14:02:00.909Z,54.80
2022-08-05T14:04:51.172Z,55.00
2022-08-05T14:07:55.436Z,55.10
2022-08-05T14:10:13.014Z,55.30
2022-08-05T14:12:42.789Z,55.40
2022-08-05T14:16:05.346Z,55.50
2022-08-05T14:18:05.179Z,55.60
2022-08-05T14:20:34.075Z,55.80
2022-08-05T14:23:03.080Z,55.90
2022-08-05T14:25:32.066Z,55.90
2022-08-05T14:28:00.880Z,56.00
2022-08-05T14:30:30.966Z,56.00
2022-08-05T14:32:59.854Z,56.20
2022-08-05T14:35:36.873Z,56.30
2022-08-05T14:38:06.379Z,56.30
2022-08-05T14:40:55.049Z,56.40
2022-08-05T14:43:57.331Z,56.40
2022-08-05T14:46:13.983Z,56.50
2022-08-05T14:48:42.759Z,56.60
2022-08-05T14:51:11.310Z,56.60
2022-08-05T14:54:26.179Z,56.50
2022-08-05T14:56:35.670Z,56.60
2022-08-05T14:59:06.898Z,56.60
2022-08-05T15:01:49.007Z,56.70
2022-08-05T15:04:20.487Z,56.70
2022-08-05T15:06:51.483Z,56.80
2022-08-05T15:09:51.305Z,56.80
2022-08-05T15:12:11.513Z,56.80
2022-08-05T15:14:50.057Z,56.80
2022-08-05T15:17:46.685Z,56.80
2022-08-05T15:20:18.505Z,56.90
2022-08-05T15:22:54.060Z,56.90
2022-08-05T15:25:51.461Z,56.90
2022-08-05T15:28:14.383Z,57.00
2022-08-05T15:30:45.784Z,57.00
2022-08-05T15:34:05.113Z,57.00
2022-08-05T15:36:17.004Z,57.20
2022-08-05T15:41:02.516Z,57.30
2022-08-05T15:41:58.083Z,57.40
2022-08-05T15:44:29.986Z,57.50
2022-08-05T15:47:00.217Z,57.50
2022-08-05T15:49:42.223Z,57.60
2022-08-05T15:52:51.838Z,57.50
2022-08-05T15:55:10.449Z,57.50
2022-08-05T15:57:46.039Z,57.40
2022-08-05T16:00:26.057Z,57.40
2022-08-05T16:03:01.598Z,57.40
2022-08-05T16:05:35.029Z,57.50
2022-08-05T16:08:08.027Z,57.40
2022-08-05T16:10:36.764Z,57.70
2022-08-05T16:13:05.542Z,57.80
2022-08-05T16:15:34.277Z,57.90
2022-08-05T16:18:04.295Z,58.00
2022-08-05T16:20:39.177Z,58.10
2022-08-05T16:23:08.587Z,58.20
2022-08-05T16:25:38.031Z,58.30
2022-08-05T16:28:10.262Z,58.40
2022-08-05T16:30:39.246Z,58.50
2022-08-05T16:33:10.448Z,58.60
2022-08-05T16:35:42.163Z,58.60
2022-08-05T16:38:18.679Z,58.70
2022-08-05T16:40:55.391Z,58.70
2022-08-05T16:43:31.481Z,58.80
2022-08-05T16:46:04.377Z,58.70
2022-08-05T16:48:39.027Z,58.80
2022-08-05T16:51:10.749Z,58.90
2022-08-05T16:54:03.479Z,58.90
2022-08-05T16:56:31.348Z,59.00
2022-08-05T16:59:00.992Z,59.20
2022-08-05T17:01:53.650Z,59.20
2022-08-05T17:04:27.285Z,59.40
2022-08-05T17:07:01.262Z,59.40
2022-08-05T17:09:57.721Z,59.50
2022-08-05T17:12:22.465Z,59.70
2022-08-05T17:14:51.769Z,59.90
2022-08-05T17:17:20.420Z,60.00
2022-08-05T17:19:53.858Z,60.20
2022-08-05T17:22:26.122Z,60.40
2022-08-05T17:24:58.136Z,60.50
2022-08-05T17:27:33.922Z,60.90
2022-08-05T17:30:12.209Z,61.10
2022-08-05T17:32:48.031Z,61.30
2022-08-05T17:35:20.856Z,61.50
2022-08-05T17:37:51.386Z,61.70
2022-08-05T17:40:22.661Z,62.10
2022-08-05T17:42:53.528Z,62.20
2022-08-05T17:45:29.632Z,62.30
2022-08-05T17:48:08.918Z,62.50
2022-08-05T17:50:37.386Z,62.70
2022-08-05T17:53:08.730Z,62.90
2022-08-05T17:55:39.918Z,63.10
2022-08-05T17:58:14.575Z,63.30
2022-08-05T18:00:47.855Z,63.60
2022-08-05T18:06:11.455Z,64.10
2022-08-05T18:08:44.928Z,64.50
2022-08-05T18:11:24.277Z,65.00
2022-08-05T18:13:59.766Z,65.80
2022-08-05T18:16:29.232Z,66.70
2022-08-05T18:18:57.791Z,67.60
2022-08-05T18:22:08.892Z,68.40
2022-08-05T18:24:17.296Z,69.00
2022-08-05T18:26:46.436Z,69.90
2022-08-05T18:29:17.046Z,71.00
2022-08-05T18:31:45.865Z,72.00
2022-08-05T18:34:21.771Z,73.40
2022-08-05T18:36:50.546Z,73.90
2022-08-05T18:40:29.670Z,74.60
2022-08-05T18:42:12.647Z,75.50
2022-08-05T18:44:48.990Z,75.80
2022-08-05T18:47:22.633Z,76.20
2022-08-05T18:50:12.889Z,76.70
2022-08-05T18:52:50.898Z,77.00
2022-08-05T18:55:22.347Z,77.50
2022-08-05T18:57:52.992Z,78.00
2022-08-05T19:00:28.817Z,78.60
2022-08-05T19:03:04.157Z,79.10
2022-08-05T19:06:12.425Z,80.70
2022-08-05T19:08:30.157Z,81.10
2022-08-05T19:11:04.621Z,82.20
2022-08-05T19:13:36.850Z,83.70
2022-08-05T19:16:24.890Z,84.60
2022-08-05T19:18:57.182Z,85.60
2022-08-05T19:21:34.190Z,86.50
2022-08-05T19:24:08.965Z,87.50
2022-08-05T19:26:43.917Z,88.20
2022-08-05T19:29:26.769Z,89.40
2022-08-05T19:32:08.621Z,89.90
2022-08-05T19:34:40.425Z,90.30
2022-08-05T19:37:10.309Z,90.50
2022-08-05T19:39:45.628Z,90.70
2022-08-05T19:42:35.299Z,90.90
2022-08-05T19:45:07.222Z,91.00
2022-08-05T19:47:37.492Z,91.20
2022-08-05T19:50:10.530Z,91.40
2022-08-05T19:52:41.204Z,91.50
2022-08-05T19:56:14.451Z,91.80
2022-08-05T19:58:14.416Z,92.00
2022-08-05T20:00:49.917Z,92.40
2022-08-05T20:03:18.805Z,92.70
2022-08-05T20:05:50.123Z,93.10
2022-08-05T20:08:24.537Z,93.50
2022-08-05T20:10:53.637Z,93.80
2022-08-05T20:13:54.963Z,94.10
2022-08-05T20:16:12.989Z,94.50
2022-08-05T20:18:55.414Z,94.90
2022-08-05T20:21:25.702Z,95.20
2022-08-05T20:23:54.663Z,95.50
2022-08-05T20:26:25.863Z,95.90
2022-08-05T20:28:58.076Z,96.20
2022-08-05T20:31:43.010Z,96.60
2022-08-05T20:34:18.977Z,96.90
2022-08-05T20:36:48.862Z,97.10
2022-08-05T20:39:18.706Z,97.40
2022-08-05T20:41:48.244Z,97.80
2022-08-05T20:44:29.942Z,98.10
2022-08-05T20:47:01.326Z,98.50
2022-08-05T20:49:30.268Z,98.70
2022-08-05T20:52:07.228Z,98.90
2022-08-05T20:54:43.398Z,99.20
2022-08-05T20:57:43.963Z,99.70
2022-08-05T21:00:34.852Z,99.60
2022-08-05T21:03:08.195Z,99.90
2022-08-05T21:05:53.585Z,99.90
2022-08-05T21:08:26.610Z,99.90
2022-08-05T21:11:09.934Z,99.90
2022-08-05T21:13:47.882Z,99.90
2022-08-05T21:16:29.949Z,99.90
2022-08-05T21:18:59.822Z,99.90
2022-08-05T21:21:43.849Z,99.90
2022-08-05T21:24:19.589Z,99.90
2022-08-05T21:26:58.402Z,99.90
2022-08-05T21:29:32.015Z,99.90
2022-08-05T21:32:03.560Z,99.90
2022-08-05T21:34:33.105Z,99.90
2022-08-05T21:37:05.138Z,99.90
2022-08-05T21:39:34.475Z,99.90
2022-08-05T21:42:03.662Z,99.90
2022-08-05T21:44:32.802Z,99.90
2022-08-05T21:47:02.901Z,99.90
2022-08-05T21:49:56.892Z,99.90
2022-08-05T21:52:28.464Z,99.90
2022-08-05T21:55:06.450Z,99.90
2022-08-05T21:57:36.413Z,99.90
2022-08-05T22:00:13.043Z,99.90
2022-08-05T22:02:43.944Z,99.90
2022-08-05T22:05:14.497Z,99.90
2022-08-05T22:08:02.002Z,99.90
2022-08-05T22:10:31.283Z,99.90
2022-08-05T22:13:58.821Z,99.90
2022-08-05T22:16:01.060Z,99.90
2022-08-05T22:18:34.955Z,99.90
2022-08-05T22:21:11.209Z,99.90
2022-08-05T22:24:08.974Z,99.90
2022-08-05T22:26:59.254Z,99.90
2022-08-05T22:29:30.846Z,99.90
2022-08-05T22:32:02.867Z,99.90
2022-08-05T22:34:34.205Z,99.90
2022-08-05T22:37:05.021Z,99.90
2022-08-05T22:39:34.665Z,99.90
2022-08-05T22:42:10.916Z,99.90
2022-08-05T22:44:48.401Z,99.90
2022-08-05T22:47:29.752Z,99.90
2022-08-05T22:50:19.732Z,99.90
2022-08-05T22:52:52.457Z,99.90
2022-08-05T22:55:22.221Z,99.90
2022-08-05T22:57:51.461Z,99.90
2022-08-05T23:00:22.514Z,99.90
2022-08-05T23:02:53.629Z,99.90
2022-08-05T23:05:24.657Z,99.90
2022-08-05T23:07:53.865Z,99.90
2022-08-05T23:10:24.422Z,99.90
2022-08-05T23:12:55.743Z,99.90
2022-08-05T23:15:26.956Z,99.90
2022-08-05T23:18:00.944Z,99.90
2022-08-05T23:20:37.525Z,99.90
2022-08-05T23:23:08.713Z,99.90
2022-08-05T23:25:54.985Z,99.90
2022-08-05T23:28:28.753Z,99.90
2022-08-05T23:31:02.224Z,99.90
2022-08-05T23:34:03.304Z,99.90
2022-08-05T23:36:38.608Z,99.90
2022-08-05T23:39:09.259Z,99.90
2022-08-05T23:41:40.940Z,99.90
2022-08-05T23:44:09.791Z,99.90
2022-08-05T23:46:39.346Z,99.90
2022-08-05T23:49:16.878Z,99.90
2022-08-05T23:52:09.622Z,99.90
2022-08-05T23:54:38.836Z,99.90
2022-08-05T23:57:08.541Z,99.90
